Maxwelton, WV

2:53 PM EDT on August 24, 2016 (GMT -0400)
APRSWXNET | | Change Station

Elev 2270 ft 37.86 °N, 80.41 °W | Updated 24 minutes ago

Overcast
Overcast
77 °F
Feels Like 79 °F
N
1
Wind Variable Wind from South
Gusts 3.0 mph

Today
High -- | Low -- °F
--% Chance of Precip.
Yesterday
High -- | Low -- °F
Precip. -- in
Pressure 30.32 in
Visibility 10.0 miles
Clouds Mostly Cloudy 4400 ft
Overcast 6000 ft
Heat Index 79 °F
Dew Point 67 °F
Humidity 72%
Rainfall in
Snow Depth Not available.
6:45 AM 8:01 PM
Waning Gibbous, 54% visible
METAR KLWB 241835Z AUTO 24007KT 10SM BKN044 OVC060 25/18 A3032 RMK AO2 T02450175
Pressure 30.32 in
Visibility 10.0 miles
Clouds Mostly Cloudy 4400 ft
Overcast 6000 ft
Heat Index 79 °F
Dew Point 67 °F
Humidity 72%
Rainfall in
Snow Depth Not available.
6:45 AM 8:01 PM
Waning Gibbous, 54% visible
METAR KLWB 241835Z AUTO 24007KT 10SM BKN044 OVC060 25/18 A3032 RMK AO2 T02450175

10-Day Weather Forecast

Almanac

Astronomy

Aug. 24, 2016 Rise Set
Actual Time
Civil Twilight
Nautical Twilight
Astronomical Twilight
Moon
Length of Visible Light
Length of Day
Tomorrow will be .
, % of the Moon is Illuminated

Today's Extremes

State Highs State Lows

Community

WunderPhotos

Upload Photos

1,934,677 photos uploaded!

WunderBlog® & News

Nearby

Air Quality

  Air Quality AQ Index Pollutant
Not available.

Snow Depth

Station Depth Elevation

Earthquake Activity

City Distance Mag. Time & Date
Minimum magnitude displayed is 2.5.

Coastal Water Temperatures

Place Temperature

Stations

Nearby Weather Stations

Station Location Temp. Windchill Dew Point Humidity Wind Precip. Elev Updated Type
                   

Watches & Warnings

There are currently no watches in effect.